Flight Track Log - Related Links

Times and Time Zones

All times are in EDT time to prevent confusion due to time zone crossing. See the SWA16 flight status page for this flight to view local times or setup timezone preferences in your user account.

Time Position Orientation Groundspeed Altitude Reporting Facility
EDT Latitude Longitude Course Direction KTS MPH feet Rate Location/Type
Tue 07:37:20 PM 39.8833 -104.5333 90° East 231 266 8,600  Level Denver TRACON
Tue 07:38:20 PM 39.8833 -104.4333 90° East 256 295 11,600 2,243 Climbing Denver TRACON
Tue 07:39:07 PM 39.8739 -104.3567 99° East 293 337 12,600 2,092 Climbing Denver Center
Tue 07:40:09 PM 39.8728 -104.2194 91° East 357 411 15,400 2,661 Climbing Denver Center
Tue 07:41:11 PM 39.8725 -104.0819 90° East 379 436 18,100 2,613 Climbing Denver Center
Tue 07:42:13 PM 39.8708 -103.9278 91° East 402 463 20,800 2,371 Climbing Denver Center
Tue 07:43:15 PM 39.8803 -103.7786 85° East 418 481 23,000 2,129 Climbing Denver Center
Tue 07:44:17 PM 39.8986 -103.6106 82° East 423 487 25,200 1,452 Climbing Denver Center
Tue 07:45:19 PM 39.9181 -103.4414 81° East 466 536 26,000 919 Climbing Denver Center
Tue 07:46:21 PM 39.9375 -103.2594 82° East 499 574 27,100 1,403 Climbing Denver Center
Tue 07:47:23 PM 39.9586 -103.0742 81° East 511 588 28,900 1,548 Climbing Denver Center
Tue 07:48:25 PM 39.9792 -102.8850 82° East 521 600 30,300 1,258 Climbing Denver Center
Tue 07:49:27 PM 40.0003 -102.6917 82° East 532 612 31,500 1,306 Climbing Denver Center
Tue 07:50:29 PM 40.0219 -102.4825 82° East 535 616 33,000 720 Climbing Denver Center
Tue 07:51:32 PM 40.0400 -102.3056 82° East 518 596 33,000 288 Level Denver Center
Tue 07:52:34 PM 40.0617 -102.0981 82° East 518 596 33,600 823 Climbing Denver Center
Tue 07:53:36 PM 40.0797 -101.9186 82° East 522 601 34,700 1,113 Climbing Denver Center
Tue 07:54:38 PM 40.1000 -101.7075 83° East 527 606 35,900 968 Climbing Denver Center
Tue 07:55:40 PM 40.1186 -101.5225 82° East 537 618 36,700 532 Climbing Denver Center
Tue 07:56:42 PM 40.1392 -101.3075 83° East 536 617 37,000 145 Climbing Denver Center
Tue 07:57:44 PM 40.1572 -101.1242 83° East 535 616 37,000  Level Denver Center
Tue 07:58:46 PM 40.1842 -100.9122 80° East 533 613 37,000  Level Denver Center
Tue 07:59:48 PM 40.2203 -100.7325 75° East 537 618 37,000  Level Denver Center
Tue 08:00:50 PM 40.2619 -100.5250 75° East 533 613 37,000  Level Denver Center
Tue 08:01:52 PM 40.2967 -100.3442 76° East 537 618 37,000  Level Denver Center
Tue 08:02:54 PM 40.3358 -100.1339 76° East 536 617 37,000  Level Denver Center
Tue 08:03:56 PM 40.3706 -99.9478 76° East 548 631 37,000  Level Denver Center
Tue 08:04:58 PM 40.4108 -99.7361 76° East 549 632 37,000  Level Denver Center
Tue 08:06:00 PM 40.4472 -99.5419 76° East 550 633 37,000  Level Denver Center
Tue 08:07:02 PM 40.4822 -99.3447 77° East 555 639 37,000  Level Denver Center
Tue 08:08:04 PM 40.5189 -99.1486 76° East 556 640 37,000  Level Denver Center
Tue 08:09:06 PM 40.5611 -98.9122 77° East 557 641 37,000  Level Denver Center
Tue 08:10:08 PM 40.5953 -98.7153 77° East 557 641 37,000  Level Denver Center
Tue 08:11:10 PM 40.6308 -98.5189 77° East 556 640 37,000  Level Denver Center
Tue 08:12:26 PM 40.6711 -98.2822 77° East 557 641 37,000  Level Minneapolis Center
Tue 08:13:28 PM 40.7053 -98.0836 77° East 559 643 37,000  Level Minneapolis Center
Tue 08:14:29 PM 40.7450 -97.8433 78° East 561 646 37,000  Level Minneapolis Center
Tue 08:15:31 PM 40.7797 -97.6439 77° East 560 644 37,000  Level Minneapolis Center
Tue 08:16:33 PM 40.8122 -97.4408 78° East 564 649 37,000  Level Minneapolis Center
Tue 08:17:35 PM 40.8431 -97.2511 78° East 563 648 37,000  Level Minneapolis Center
Tue 08:18:37 PM 40.8764 -97.0489 78° East 564 649 37,000  Level Minneapolis Center
Tue 08:19:39 PM 40.9142 -96.8075 78° East 561 646 37,000  Level Minneapolis Center
Tue 08:20:41 PM 40.9450 -96.6044 79° East 565 650 37,000  Level Minneapolis Center
Tue 08:21:43 PM 40.9719 -96.4017 80° East 564 649 37,000  Level Minneapolis Center
Tue 08:22:45 PM 40.9989 -96.2022 80° East 560 644 37,000  Level Minneapolis Center
Tue 08:23:47 PM 41.0250 -96.0036 80° East 556 640 37,000  Level Minneapolis Center
Tue 08:25:01 PM 41.0564 -95.7658 80° East 554 638 37,000  Level Minneapolis Center
Tue 08:26:03 PM 41.0869 -95.5256 80° East 557 641 37,000  Level Minneapolis Center
Tue 08:27:05 PM 41.1136 -95.3222 80° East 562 647 37,000  Level Minneapolis Center
Tue 08:28:07 PM 41.1389 -95.1192 81° East 562 647 37,000  Level Minneapolis Center
Tue 08:29:09 PM 41.1628 -94.9167 81° East 560 644 37,000  Level Minneapolis Center
Tue 08:30:11 PM 41.1922 -94.6733 81° East 558 642 37,000  Level Minneapolis Center
Tue 08:31:13 PM 41.2167 -94.4689 81° East 560 644 37,000 194 Level Minneapolis Center
Tue 08:32:15 PM 41.2408 -94.2647 81° East 560 644 37,400 484 Climbing Minneapolis Center
Tue 08:33:17 PM 41.2619 -94.0689 82° East 562 647 38,000 726 Climbing Minneapolis Center
Tue 08:34:19 PM 41.2864 -93.8625 81° East 566 651 38,900 484 Climbing Minneapolis Center
Tue 08:35:21 PM 41.3158 -93.6169 81° East 564 649 39,000 48 Climbing Minneapolis Center
Tue 08:36:23 PM 41.3419 -93.4153 80° East 558 642 39,000  Level Minneapolis Center
Tue 08:37:25 PM 41.3650 -93.2144 81° East 554 638 39,000  Level Minneapolis Center
Tue 08:38:39 PM 41.3914 -92.9761 82° East 546 628 39,000  Level Minneapolis Center
Tue 08:39:42 PM 41.4133 -92.7781 82° East 544 626 39,000  Level Minneapolis Center
Tue 08:40:25 PM 41.4308 -92.6175 82° East 543 625 39,000  Level Chicago Center
Tue 08:41:27 PM 41.4519 -92.4186 82° East 544 626 39,000  Level Chicago Center
Tue 08:42:29 PM 41.4753 -92.1997 82° East 542 624 39,000  Level Chicago Center
Tue 08:43:31 PM 41.4947 -92.0031 82° East 542 624 39,000  Level Chicago Center
Tue 08:44:32 PM 41.5158 -91.8078 82° East 539 620 39,000  Level Chicago Center
Tue 08:45:34 PM 41.5350 -91.6106 83° East 541 623 39,000  Level Chicago Center
Tue 08:46:36 PM 41.5547 -91.4150 82° East 539 620 39,000  Level Chicago Center
Tue 08:47:38 PM 41.5769 -91.1806 83° East 539 620 39,000  Level Chicago Center
Tue 08:48:40 PM 41.5969 -90.9836 82° East 541 623 39,000  Level Chicago Center
Tue 08:49:42 PM 41.6136 -90.7897 83° East 536 617 39,000  Level Chicago Center
Tue 08:50:44 PM 41.6308 -90.6019 83° East 535 616 39,000  Level Chicago Center
Tue 08:51:46 PM 41.6525 -90.3625 83° East 538 619 39,000  Level Chicago Center
Tue 08:52:47 PM 41.6689 -90.1661 84° East 531 611 39,000  Level Chicago Center
Tue 08:53:49 PM 41.6875 -89.9675 83° East 534 615 39,000  Level Chicago Center
Tue 08:54:51 PM 41.7028 -89.7681 84° East 536 617 39,000  Level Chicago Center
Tue 08:55:53 PM 41.7192 -89.5697 84° East 534 615 39,000  Level Chicago Center
Tue 08:56:55 PM 41.7367 -89.3517 84° East 534 615 39,000  Level Chicago Center
Tue 08:57:57 PM 41.7519 -89.1553 84° East 531 611 39,000  Level Chicago Center
Tue 08:58:59 PM 41.7653 -88.9606 85° East 529 609 39,000  Level Chicago Center
Tue 09:00:01 PM 41.7808 -88.7639 84° East 530 610 39,000  Level Chicago Center
Tue 09:01:03 PM 41.7953 -88.5692 84° East 528 608 39,000  Level Chicago Center
Tue 09:02:05 PM 41.8119 -88.3333 85° East 531 611 39,000  Level Chicago Center
Tue 09:03:07 PM 41.8256 -88.1372 85° East 528 608 39,000  Level Chicago Center
Tue 09:04:09 PM 41.8381 -87.9417 85° East 526 605 39,000  Level Chicago Center
Tue 09:05:11 PM 41.8517 -87.7458 85° East 526 605 39,000  Level Chicago Center
Tue 09:06:13 PM 41.8633 -87.5497 85° East 527 606 39,000  Level Chicago Center
Tue 09:07:15 PM 41.8750 -87.3547 85° East 525 604 39,000  Level Chicago Center
Tue 09:08:17 PM 41.8867 -87.1614 85° East 522 601 39,000  Level Chicago Center
Tue 09:09:19 PM 41.9008 -86.9303 85° East 520 598 39,000  Level Chicago Center
Tue 09:10:21 PM 41.9108 -86.7389 86° East 516 594 39,000  Level Chicago Center
Tue 09:11:23 PM 41.9211 -86.5603 86° East 514 592 39,000  Level Chicago Center
Tue 09:12:25 PM 41.9331 -86.3678 85° East 517 595 39,000  Level Chicago Center
Tue 09:13:28 PM 41.9444 -86.1375 86° East 516 594 39,000  Level Chicago Center
Tue 09:14:30 PM 41.9542 -85.9458 86° East 515 593 39,000  Level Chicago Center
Tue 09:15:32 PM 41.9642 -85.7539 86° East 514 592 39,000  Level Chicago Center
Tue 09:16:34 PM 41.9722 -85.5586 87° East 518 596 39,000  Level Chicago Center
Tue 09:17:36 PM 41.9817 -85.3611 86° East 524 603 39,000  Level Chicago Center
Tue 09:18:38 PM 41.9897 -85.1631 87° East 525 604 39,000  Level Chicago Center
Tue 09:19:40 PM 41.9986 -84.9583 87° East 519 597 39,000  Level Chicago Center
Tue 09:20:42 PM 42.0061 -84.7664 87° East 518 596 39,000  Level Chicago Center
Tue 09:21:38 PM 42.0131 -84.5856 87° East 512 589 39,000  Level Cleveland Center
Tue 09:22:38 PM 42.0200 -84.3875 87° East 512 589 39,000  Level Cleveland Center
Tue 09:23:38 PM 42.0244 -84.1836 88° East 512 589 39,000  Level Cleveland Center
Tue 09:24:38 PM 42.0386 -83.9914 84° East 512 589 39,000  Level Cleveland Center
Tue 09:25:38 PM 42.0586 -83.8050 82° East 512 589 39,000  Level Cleveland Center
Tue 09:26:38 PM 42.0806 -83.6131 81° East 517 595 39,000  Level Cleveland Center
Tue 09:27:38 PM 42.0994 -83.4406 82° East 523 602 39,000  Level Cleveland Center
Tue 09:28:38 PM 42.1231 -83.2344 81° East 518 596 39,000  Level Cleveland Center
Tue 09:29:38 PM 42.1417 -83.0614 82° East 518 596 39,000  Level Cleveland Center
Tue 09:30:38 PM 42.1622 -82.8689 82° East 518 596 39,000  Level Cleveland Center
Tue 09:31:38 PM 42.1825 -82.6792 82° East 518 596 39,000  Level Cleveland Center
Tue 09:32:38 PM 42.2006 -82.4919 83° East 518 596 39,000  Level Cleveland Center
Tue 09:33:38 PM 42.2200 -82.3047 82° East 513 590 39,000  Level Cleveland Center
Tue 09:34:38 PM 42.2439 -82.0978 81° East 508 585 39,000  Level Cleveland Center
Tue 09:35:38 PM 42.2608 -81.9103 83° East 503 579 39,000  Level Cleveland Center
Tue 09:36:38 PM 42.2772 -81.7422 82° East 503 579 39,000  Level Cleveland Center
Tue 09:37:38 PM 42.2956 -81.5544 82° East 503 579 39,000  Level Cleveland Center
Tue 09:38:38 PM 42.3117 -81.3664 83° East 503 579 39,000  Level Cleveland Center
Tue 09:39:38 PM 42.3294 -81.1758 83° East 503 579 39,000  Level Cleveland Center
Tue 09:40:38 PM 42.3450 -80.9850 84° East 503 579 39,000  Level Cleveland Center
Tue 09:41:38 PM 42.3619 -80.7742 84° East 503 579 39,000  Level Cleveland Center
Tue 09:42:38 PM 42.3789 -80.5831 83° East 503 579 39,000  Level Cleveland Center
Tue 09:43:38 PM 42.3975 -80.3975 82° East 508 585 39,000  Level Cleveland Center
Tue 09:44:38 PM 42.4117 -80.2036 84° East 502 578 39,000  Level Cleveland Center
Tue 09:45:38 PM 42.4256 -80.0122 84° East 502 578 39,000  Level Cleveland Center
Tue 09:46:38 PM 42.4411 -79.8433 83° East 502 578 39,000  Level Cleveland Center
Tue 09:47:38 PM 42.4544 -79.6489 85° East 502 578 39,000  Level Cleveland Center
Tue 09:48:38 PM 42.4733 -79.4458 83° East 502 578 39,000  Level Cleveland Center
Tue 09:49:38 PM 42.4858 -79.2542 85° East 502 578 39,000  Level Cleveland Center
Tue 09:50:38 PM 42.4981 -79.0653 85° East 502 578 39,000  Level Cleveland Center
Tue 09:51:38 PM 42.5122 -78.8733 84° East 502 578 39,000  Level Cleveland Center
Tue 09:52:38 PM 42.5258 -78.6844 84° East 502 578 39,000  Level Cleveland Center
Tue 09:53:38 PM 42.5372 -78.4922 85° East 502 578 39,000  Level Cleveland Center
Tue 09:54:38 PM 42.5503 -78.3058 85° East 502 578 39,000  Level Cleveland Center
Tue 09:55:38 PM 42.5611 -78.1222 85° East 502 578 39,000 -350 Level Cleveland Center
Tue 09:56:38 PM 42.5717 -77.9386 85° East 497 572 38,300 -850 Descending Cleveland Center
Tue 09:57:38 PM 42.5817 -77.7492 86° East 497 572 37,300 -650 Descending Cleveland Center
Tue 09:58:38 PM 42.5956 -77.5539 84° East 503 579 37,000 -87 Descending Cleveland Center
Tue 10:01:04 PM 42.6214 -77.1078 85° East 511 588 37,000  Level Boston Center
Tue 10:02:04 PM 42.6292 -76.9164 87° East 511 588 37,000  Level Boston Center
Tue 10:03:04 PM 42.6386 -76.7250 86° East 511 588 37,000 -350 Level Boston Center
Tue 10:04:04 PM 42.6497 -76.5367 85° East 506 582 36,300 -850 Descending Boston Center
Tue 10:05:04 PM 42.6583 -76.3450 86° East 506 582 35,300 -1,000 Descending Boston Center
Tue 10:06:04 PM 42.6694 -76.1397 86° East 506 582 34,300 -909 Descending Boston Center
Tue 10:07:16 PM 42.6753 -75.9564 87° East 495 570 33,300 -955 Descending Boston Center
Tue 10:08:16 PM 42.6861 -75.7308 86° East 490 564 32,200 -1,050 Descending Boston Center
Tue 10:09:16 PM 42.6917 -75.5364 88° East 500 575 31,200 -1,000 Descending Boston Center
Tue 10:10:16 PM 42.7008 -75.3475 86° East 500 575 30,200 -1,000 Descending Boston Center
Tue 10:11:16 PM 42.7053 -75.1667 88° East 494 568 29,200 -1,000 Descending Boston Center
Tue 10:12:16 PM 42.7111 -75.0058 87° East 474 545 28,200 -1,000 Descending Boston Center
Tue 10:13:16 PM 42.7169 -74.8336 87° East 462 532 27,200 -1,000 Descending Boston Center
Tue 10:14:16 PM 42.7225 -74.6672 87° East 451 519 26,200 -1,000 Descending Boston Center
Tue 10:15:16 PM 42.7278 -74.4978 88° East 444 511 25,200 -773 Descending Boston Center
Tue 10:16:28 PM 42.7303 -74.3453 89° East 424 488 24,500 -818 Descending Boston Center
Tue 10:17:28 PM 42.7375 -74.1531 87° East 419 482 23,400 -750 Descending Boston Center
Tue 10:18:28 PM 42.7397 -74.0033 89° East 414 476 23,000 -500 Descending Boston Center
Tue 10:19:28 PM 42.7458 -73.8508 87° East 409 471 22,400 -1,100 Descending Boston Center
Tue 10:20:28 PM 42.7542 -73.6842 86° East 397 457 20,800 -1,550 Descending Boston Center
Tue 10:21:28 PM 42.7578 -73.5344 88° East 397 457 19,300 -900 Descending Boston Center
Tue 10:22:28 PM 42.7611 -73.3875 88° East 392 451 19,000 -150 Descending Boston Center
Tue 10:23:28 PM 42.7664 -73.2461 87° East 377 434 19,000  Level Boston Center
Tue 10:24:28 PM 42.7694 -73.1047 88° East 377 434 19,000  Level Boston Center
Tue 10:25:28 PM 42.7764 -72.9775 86° East 377 434 19,000  Level Boston Center
Tue 10:26:39 PM 42.7811 -72.8333 87° East 377 434 19,000 -45 Level Boston Center
Tue 10:27:40 PM 42.7858 -72.6636 88° East 377 434 18,900 -893 Descending Boston Center
Tue 10:28:40 PM 42.7900 -72.5222 88° East 377 434 17,200 -2,000 Descending Boston Center
Tue 10:29:40 PM 42.7922 -72.3864 89° East 364 419 14,900 -2,218 Descending Boston Center
Tue 10:30:39 PM 42.7961 -72.2619 88° East 364 419 12,800 -2,300 Descending Boston Center
Tue 10:31:40 PM 42.8083 -72.1033 84° East 364 419 10,300 -1,488 Descending Boston Center
Tue 10:32:40 PM 42.8164 -71.9817 85° East 346 398 9,800 -800 Descending Boston Center
Tue 10:33:40 PM 42.8056 -71.8797 98° East 288 331 8,700 -1,150 Descending Boston Center
Tue 10:34:40 PM 42.7964 -71.7722 97° East 282 325 7,500 -1,250 Descending Boston Center
Tue 10:35:40 PM 42.7856 -71.6764 99° East 268 308 6,200 -1,350 Descending Boston Center
Tue 10:36:40 PM 42.7786 -71.5886 96° East 262 302 4,800 -1,150 Descending Boston Center
Tue 10:37:40 PM 42.7694 -71.4956 98° East 240 276 3,900 -750 Descending Boston Center
Tue 10:38:40 PM 42.7419 -71.4364 122° Southeast 204 235 3,300 -700 Descending Boston Center
Tue 10:39:40 PM 42.7331 -71.3631 99° East 182 209 2,500 -650 Descending Boston Center
Tue 10:40:40 PM 42.7681 -71.3428 23° Northeast 138 159 2,000 -250 Descending Boston Center
Tue 10:41:40 PM 42.8183 -71.3672 340° North 142 163 2,000 -50 Level Boston Center
Tue 10:42:40 PM 42.8500 -71.3867 336° Northwest 142 163 1,900 -450 Descending Boston Center
Tue 10:43:40 PM 42.8856 -71.4058 338° Northwest 131 151 1,100 -750 Descending Boston Center
Tue 10:44:40 PM 42.9147 -71.4225 337° Northwest 126 145 400 8,950 Descending Boston Center
Tue 10:45:40 PM 42.9483 -71.4472 332° Northwest 126 145 19,000 18,600 Climbing Boston Center

Login

Don't have an account? Register now (free) for customized features, flight alerts, and more!